createdAt,value
2023-05-08T00:00:42.451Z,1860.00
2023-05-08T00:01:42.461Z,1885.00
2023-05-08T00:02:42.519Z,1864.00
2023-05-08T00:03:42.643Z,1894.00
2023-05-08T00:04:42.482Z,1872.00
2023-05-08T00:05:42.450Z,1860.00
2023-05-08T00:06:42.449Z,1843.00
2023-05-08T00:07:42.460Z,1827.00
2023-05-08T00:08:42.467Z,1861.00
2023-05-08T00:09:42.471Z,1850.00
2023-05-08T00:10:42.458Z,1835.00
2023-05-08T00:11:42.464Z,1829.00
2023-05-08T00:12:42.464Z,1841.00
2023-05-08T00:13:42.445Z,1822.00
2023-05-08T00:14:42.445Z,1824.00
2023-05-08T00:15:42.446Z,1833.00
2023-05-08T00:16:42.534Z,1845.00
2023-05-08T00:17:42.498Z,1838.00
2023-05-08T00:18:42.468Z,1843.00
2023-05-08T00:19:42.486Z,1818.00
2023-05-08T00:20:42.451Z,1803.00
2023-05-08T00:21:42.475Z,1827.00
2023-05-08T00:22:42.457Z,1805.00
2023-05-08T00:23:42.476Z,1794.00
2023-05-08T00:24:42.464Z,1791.00
2023-05-08T00:25:42.465Z,1852.00
2023-05-08T00:26:42.492Z,1815.00
2023-05-08T00:27:42.474Z,1814.00
2023-05-08T00:28:42.474Z,1791.00
2023-05-08T00:29:42.500Z,1782.00
2023-05-08T00:30:42.535Z,1769.00
2023-05-08T00:31:42.548Z,1802.00
2023-05-08T00:32:42.518Z,1825.00
2023-05-08T00:33:42.493Z,1809.00
2023-05-08T00:34:42.502Z,1781.00
2023-05-08T00:35:42.495Z,1803.00
2023-05-08T00:36:42.501Z,1791.00
2023-05-08T00:37:42.517Z,1768.00
2023-05-08T00:38:42.522Z,1788.00
2023-05-08T00:39:42.523Z,1777.00
2023-05-08T00:40:42.521Z,1813.00
2023-05-08T00:41:42.538Z,1803.00
2023-05-08T00:42:42.606Z,1787.00
2023-05-08T00:43:42.559Z,1805.00
2023-05-08T00:44:42.559Z,1810.00
2023-05-08T00:45:42.554Z,1790.00
2023-05-08T00:46:42.680Z,1780.00
2023-05-08T00:47:42.624Z,1794.00
2023-05-08T00:48:42.588Z,1781.00
2023-05-08T00:49:42.626Z,1777.00
2023-05-08T00:50:42.593Z,1776.00
2023-05-08T00:51:42.569Z,1826.00
2023-05-08T00:52:42.577Z,1815.00
2023-05-08T00:53:42.587Z,1829.00
2023-05-08T00:54:42.634Z,1829.00
2023-05-08T00:55:42.608Z,1818.00
2023-05-08T00:56:42.618Z,1809.00
2023-05-08T00:57:42.696Z,1814.00
2023-05-08T00:58:42.627Z,1838.00
2023-05-08T00:59:42.633Z,1856.00
2023-05-08T01:00:42.645Z,1843.00
2023-05-08T01:01:42.678Z,1845.00
2023-05-08T01:02:42.677Z,1846.00
2023-05-08T01:03:42.824Z,1841.00
2023-05-08T01:04:42.658Z,1854.00
2023-05-08T01:05:42.657Z,1842.00
2023-05-08T01:06:42.672Z,1844.00
2023-05-08T01:07:42.687Z,1892.00
2023-05-08T01:08:42.674Z,1877.00
2023-05-08T01:09:42.680Z,1897.00
2023-05-08T01:10:42.686Z,1887.00
2023-05-08T01:11:42.703Z,1879.00
2023-05-08T01:12:42.749Z,1863.00
2023-05-08T01:13:42.731Z,1889.00
2023-05-08T01:14:42.735Z,1894.00
2023-05-08T01:15:42.771Z,1882.00
2023-05-08T01:16:42.740Z,1880.00
2023-05-08T01:17:42.774Z,1887.00
2023-05-08T01:18:42.785Z,1876.00
2023-05-08T01:19:42.758Z,1880.00
2023-05-08T01:20:42.764Z,1907.00
2023-05-08T01:21:42.778Z,1891.00
2023-05-08T01:22:42.796Z,1902.00
2023-05-08T01:23:42.815Z,1897.00
2023-05-08T01:24:42.822Z,1902.00
2023-05-08T01:25:42.834Z,1909.00
2023-05-08T01:26:42.838Z,1924.00
2023-05-08T01:27:42.831Z,1918.00
2023-05-08T01:28:42.871Z,1921.00
2023-05-08T01:29:42.886Z,1907.00
2023-05-08T01:30:42.884Z,1930.00
2023-05-08T01:31:42.886Z,1904.00
2023-05-08T01:32:42.975Z,1911.00
2023-05-08T01:33:42.967Z,1924.00
2023-05-08T01:34:42.936Z,1901.00
2023-05-08T01:35:42.972Z,1913.00
2023-05-08T01:36:42.952Z,1924.00
2023-05-08T01:37:42.956Z,1907.00
2023-05-08T01:38:42.985Z,1924.00
2023-05-08T01:39:43.004Z,1919.00
2023-05-08T01:40:43.016Z,1909.00
2023-05-08T01:41:43.014Z,1910.00
2023-05-08T01:42:43.046Z,1926.00
2023-05-08T01:43:43.048Z,1935.00
2023-05-08T01:44:43.070Z,1909.00
2023-05-08T01:45:43.061Z,1912.00
2023-05-08T01:46:43.101Z,1919.00
2023-05-08T01:47:43.120Z,1923.00
2023-05-08T01:48:43.081Z,1907.00
2023-05-08T01:49:43.115Z,1919.00
2023-05-08T01:50:43.107Z,1942.00
2023-05-08T01:51:43.126Z,1928.00
2023-05-08T01:52:43.170Z,1930.00
2023-05-08T01:53:43.138Z,1947.00
2023-05-08T01:54:43.153Z,1947.00
2023-05-08T01:55:43.185Z,1960.00
2023-05-08T01:56:43.205Z,1935.00
2023-05-08T01:57:43.208Z,1937.00
2023-05-08T01:58:43.192Z,1967.00
2023-05-08T01:59:43.210Z,1940.00
2023-05-08T02:00:43.349Z,1925.00
2023-05-08T02:01:43.255Z,1953.00
2023-05-08T02:02:43.334Z,1960.00
2023-05-08T02:03:43.302Z,1928.00
2023-05-08T02:04:43.282Z,1928.00
2023-05-08T02:05:43.288Z,1927.00
2023-05-08T02:06:43.297Z,1941.00
2023-05-08T02:07:43.307Z,1951.00
2023-05-08T02:08:43.333Z,1994.00
2023-05-08T02:09:43.363Z,2011.00
2023-05-08T02:10:43.353Z,2025.00
2023-05-08T02:11:43.366Z,2042.00
2023-05-08T02:12:43.432Z,2069.00
2023-05-08T02:13:43.403Z,2097.00
2023-05-08T02:14:43.440Z,2109.00
2023-05-08T02:15:43.443Z,2124.00
2023-05-08T02:16:43.502Z,2130.00
2023-05-08T02:17:43.508Z,2143.00
2023-05-08T02:18:43.511Z,2150.00
2023-05-08T02:19:43.489Z,2160.00
2023-05-08T02:20:43.494Z,2164.00
2023-05-08T02:21:43.502Z,2180.00
2023-05-08T02:22:43.522Z,2192.00
2023-05-08T02:23:43.542Z,2197.00
2023-05-08T02:24:43.557Z,2207.00
2023-05-08T02:25:43.551Z,2219.00
2023-05-08T02:26:43.582Z,2209.00
2023-05-08T02:27:43.576Z,2206.00
2023-05-08T02:28:43.604Z,2222.00
2023-05-08T02:29:43.627Z,2221.00
2023-05-08T02:30:43.641Z,2222.00
2023-05-08T02:31:43.682Z,2228.00
2023-05-08T02:32:43.666Z,2248.00
2023-05-08T02:33:43.663Z,2232.00
2023-05-08T02:34:54.914Z,2268.00
2023-05-08T02:35:44.692Z,2269.00
2023-05-08T02:36:43.694Z,2269.00
2023-05-08T02:37:43.666Z,2276.00
2023-05-08T02:38:43.669Z,2273.00
2023-05-08T02:39:43.669Z,2288.00
2023-05-08T02:40:43.645Z,2288.00
2023-05-08T02:41:43.649Z,2304.00
2023-05-08T02:42:43.629Z,2301.00
2023-05-08T02:43:43.625Z,2281.00
2023-05-08T02:44:43.643Z,2266.00
2023-05-08T02:45:43.633Z,2261.00
2023-05-08T02:46:43.587Z,2218.00
2023-05-08T02:47:43.656Z,2234.00
2023-05-08T02:48:43.612Z,2197.00
2023-05-08T02:49:43.604Z,2172.00
2023-05-08T02:50:43.568Z,2135.00
2023-05-08T02:51:43.569Z,2150.00
2023-05-08T02:52:43.580Z,2161.00
2023-05-08T02:53:43.561Z,2166.00
2023-05-08T02:54:43.599Z,2145.00
2023-05-08T02:55:43.529Z,2135.00
2023-05-08T02:56:43.519Z,2134.00
2023-05-08T02:57:43.532Z,2133.00
2023-05-08T02:58:43.559Z,2122.00
2023-05-08T02:59:43.573Z,2105.00
2023-05-08T03:00:43.598Z,2101.00
2023-05-08T03:01:43.729Z,2060.00
2023-05-08T03:02:43.707Z,2051.00
2023-05-08T03:03:43.843Z,2053.00
2023-05-08T03:04:43.674Z,2047.00
2023-05-08T03:05:43.689Z,2041.00
2023-05-08T03:06:43.815Z,2016.00
2023-05-08T03:07:43.724Z,2015.00
2023-05-08T03:08:43.758Z,1987.00
2023-05-08T03:09:43.787Z,1953.00
2023-05-08T03:10:43.811Z,1942.00
2023-05-08T03:11:43.850Z,1946.00
2023-05-08T03:12:43.878Z,1944.00
2023-05-08T03:13:43.855Z,1930.00
2023-05-08T03:14:43.884Z,1897.00
2023-05-08T03:15:43.940Z,1898.00
2023-05-08T03:16:43.925Z,1928.00
2023-05-08T03:17:44.006Z,1942.00
2023-05-08T03:18:43.971Z,1922.00
2023-05-08T03:19:44.024Z,1883.00
2023-05-08T03:20:44.060Z,1882.00
2023-05-08T03:21:44.044Z,1866.00
2023-05-08T03:22:44.114Z,1856.00
2023-05-08T03:23:44.111Z,1841.00
2023-05-08T03:24:44.117Z,1831.00
2023-05-08T03:25:44.134Z,1830.00
2023-05-08T03:26:44.166Z,1869.00
2023-05-08T03:27:44.199Z,1849.00
2023-05-08T03:28:44.208Z,1856.00
2023-05-08T03:29:44.251Z,1847.00
2023-05-08T03:30:44.258Z,1859.00
2023-05-08T03:31:44.336Z,1867.00
2023-05-08T03:32:44.339Z,1838.00
2023-05-08T03:33:44.343Z,1841.00
2023-05-08T03:34:44.356Z,1824.00
2023-05-08T03:35:44.388Z,1812.00
2023-05-08T03:36:44.392Z,1810.00
2023-05-08T03:37:44.421Z,1810.00
2023-05-08T03:38:44.434Z,1839.00
2023-05-08T03:39:44.462Z,1841.00
2023-05-08T03:40:44.468Z,1828.00
2023-05-08T03:41:44.494Z,1815.00
2023-05-08T03:42:44.513Z,1819.00
2023-05-08T03:43:44.535Z,1813.00
2023-05-08T03:44:44.558Z,1795.00
2023-05-08T03:45:44.557Z,1806.00
2023-05-08T03:46:44.633Z,1788.00
2023-05-08T03:47:44.657Z,1815.00
2023-05-08T03:48:44.634Z,1786.00
2023-05-08T03:49:44.658Z,1795.00
2023-05-08T03:50:44.674Z,1780.00
2023-05-08T03:51:44.702Z,1789.00
2023-05-08T03:52:44.710Z,1771.00
2023-05-08T03:53:44.718Z,1745.00
2023-05-08T03:54:44.739Z,1775.00
2023-05-08T03:55:44.781Z,1750.00
2023-05-08T03:56:44.798Z,1766.00
2023-05-08T03:57:44.817Z,1801.00
2023-05-08T03:58:44.852Z,1807.00
2023-05-08T03:59:44.866Z,1807.00
2023-05-08T04:00:44.880Z,1775.00
2023-05-08T04:01:44.987Z,1778.00
2023-05-08T04:02:44.936Z,1779.00
2023-05-08T04:03:45.033Z,1798.00
2023-05-08T04:04:44.953Z,1796.00
2023-05-08T04:05:44.997Z,1797.00
2023-05-08T04:06:49.930Z,1788.00
2023-05-08T04:07:46.001Z,1789.00
2023-05-08T04:08:44.977Z,1790.00
2023-05-08T04:09:44.986Z,1790.00
2023-05-08T04:10:44.966Z,1796.00
2023-05-08T04:11:44.979Z,1787.00
2023-05-08T04:12:45.020Z,1777.00
2023-05-08T04:13:44.945Z,1751.00
2023-05-08T04:14:44.964Z,1761.00
2023-05-08T04:15:44.946Z,1741.00
2023-05-08T04:16:44.986Z,1754.00
2023-05-08T04:17:44.920Z,1746.00
2023-05-08T04:18:44.934Z,1698.00
2023-05-08T04:19:44.898Z,1720.00
2023-05-08T04:20:46.242Z,1724.00
2023-05-08T04:21:44.911Z,1753.00
2023-05-08T04:22:44.906Z,1716.00
2023-05-08T04:23:44.874Z,1735.00
2023-05-08T04:24:44.879Z,1741.00
2023-05-08T04:25:44.868Z,1762.00
2023-05-08T04:26:44.922Z,1733.00
2023-05-08T04:27:44.869Z,1748.00
2023-05-08T04:28:44.841Z,1717.00
2023-05-08T04:29:44.861Z,1727.00
2023-05-08T04:30:44.894Z,1712.00
2023-05-08T04:31:45.006Z,1710.00
2023-05-08T04:32:46.357Z,1714.00
2023-05-08T04:33:44.969Z,1731.00
2023-05-08T04:34:44.965Z,1715.00
2023-05-08T04:35:44.982Z,1694.00
2023-05-08T04:36:45.025Z,1727.00
2023-05-08T04:37:45.058Z,1723.00
2023-05-08T04:38:45.071Z,1709.00
2023-05-08T04:39:45.082Z,1700.00
2023-05-08T04:40:45.099Z,1687.00
2023-05-08T04:41:45.211Z,1700.00
2023-05-08T04:42:45.220Z,1702.00
2023-05-08T04:43:45.170Z,1702.00
2023-05-08T04:44:45.194Z,1727.00
2023-05-08T04:45:45.275Z,1721.00
2023-05-08T04:46:45.262Z,1718.00
2023-05-08T04:47:45.388Z,1708.00
2023-05-08T04:48:45.318Z,1715.00
2023-05-08T04:49:45.358Z,1711.00
2023-05-08T04:50:45.358Z,1701.00
2023-05-08T04:51:45.392Z,1697.00
2023-05-08T04:52:45.416Z,1686.00
2023-05-08T04:53:45.422Z,1687.00
2023-05-08T04:54:45.467Z,1705.00
2023-05-08T04:55:45.477Z,1702.00
2023-05-08T04:56:45.502Z,1691.00
2023-05-08T04:57:45.542Z,1683.00
2023-05-08T04:58:45.550Z,1707.00
2023-05-08T04:59:45.602Z,1734.00
2023-05-08T05:00:45.642Z,1718.00
2023-05-08T05:01:45.668Z,1696.00
2023-05-08T05:02:45.724Z,1703.00
2023-05-08T05:03:45.794Z,1704.00
2023-05-08T05:04:45.722Z,1710.00
2023-05-08T05:05:45.757Z,1702.00
2023-05-08T05:06:45.770Z,1716.00
2023-05-08T05:07:45.793Z,1716.00
2023-05-08T05:08:45.830Z,1714.00
2023-05-08T05:09:45.865Z,1717.00
2023-05-08T05:10:45.872Z,1736.00
2023-05-08T05:11:45.914Z,1729.00
2023-05-08T05:12:46.016Z,1743.00
2023-05-08T05:13:45.976Z,1712.00
2023-05-08T05:14:45.996Z,1735.00
2023-05-08T05:15:46.015Z,1743.00
2023-05-08T05:16:46.085Z,1753.00
2023-05-08T05:17:46.087Z,1746.00
2023-05-08T05:18:46.091Z,1739.00
2023-05-08T05:19:46.140Z,1724.00
2023-05-08T05:20:46.144Z,1742.00
2023-05-08T05:21:46.174Z,1765.00
2023-05-08T05:22:46.194Z,1727.00
2023-05-08T05:23:46.235Z,1755.00
2023-05-08T05:24:46.267Z,1736.00
2023-05-08T05:25:46.317Z,1743.00
2023-05-08T05:26:46.319Z,1726.00
2023-05-08T05:27:46.356Z,1725.00
2023-05-08T05:28:46.375Z,1799.00
2023-05-08T05:29:46.407Z,1767.00
2023-05-08T05:30:46.474Z,1870.00
2023-05-08T05:31:46.533Z,2058.00
2023-05-08T05:32:46.547Z,2123.00
2023-05-08T05:33:46.566Z,2124.00
2023-05-08T05:34:46.594Z,2213.00
2023-05-08T05:35:46.655Z,2266.00
2023-05-08T05:36:46.714Z,2317.00
2023-05-08T05:37:46.737Z,2345.00
2023-05-08T05:38:46.781Z,2337.00
2023-05-08T05:39:46.830Z,2294.00
2023-05-08T05:40:46.884Z,2305.00
2023-05-08T05:41:46.913Z,2409.00
2023-05-08T05:42:46.982Z,2362.00
2023-05-08T05:43:47.050Z,2465.00
2023-05-08T05:44:47.045Z,2427.00
2023-05-08T05:45:47.072Z,2321.00
2023-05-08T05:46:47.278Z,2327.00
2023-05-08T05:47:47.179Z,2307.00
2023-05-08T05:48:47.178Z,2251.00
2023-05-08T05:49:47.196Z,2398.00
2023-05-08T05:50:47.216Z,2432.00
2023-05-08T05:51:47.247Z,2453.00
2023-05-08T05:52:47.308Z,2412.00
2023-05-08T05:53:47.313Z,2545.00
2023-05-08T05:54:47.344Z,2599.00
2023-05-08T05:55:47.355Z,2488.00
2023-05-08T05:56:47.378Z,2532.00
2023-05-08T05:57:47.401Z,2455.00
2023-05-08T05:58:47.423Z,2362.00
2023-05-08T05:59:47.499Z,2314.00
2023-05-08T06:00:47.482Z,2282.00
2023-05-08T06:01:47.544Z,2469.00
2023-05-08T06:02:47.566Z,2443.00
2023-05-08T06:03:47.717Z,2457.00
2023-05-08T06:04:47.632Z,2458.00
2023-05-08T06:05:47.657Z,2482.00
2023-05-08T06:06:47.648Z,2415.00
2023-05-08T06:07:47.683Z,2445.00
2023-05-08T06:08:47.750Z,2339.00
2023-05-08T06:09:47.771Z,2354.00
2023-05-08T06:10:47.763Z,2339.00
2023-05-08T06:11:47.790Z,2307.00
2023-05-08T06:12:47.827Z,2305.00
2023-05-08T06:13:50.404Z,2263.00
2023-05-08T06:14:47.846Z,2258.00
2023-05-08T06:15:47.855Z,2481.00
2023-05-08T06:16:47.908Z,2548.00
2023-05-08T06:17:47.861Z,2626.00
2023-05-08T06:18:47.813Z,2673.00
2023-05-08T06:19:47.829Z,2650.00
2023-05-08T06:20:47.807Z,2585.00
2023-05-08T06:21:47.781Z,2549.00
2023-05-08T06:22:47.807Z,2471.00
2023-05-08T06:23:47.767Z,2434.00
2023-05-08T06:24:47.798Z,2424.00
2023-05-08T06:25:47.783Z,2434.00
2023-05-08T06:26:47.774Z,2492.00
2023-05-08T06:27:47.762Z,2426.00
2023-05-08T06:28:47.735Z,2406.00
2023-05-08T06:29:47.980Z,2476.00
2023-05-08T06:30:47.791Z,2459.00
2023-05-08T06:31:47.789Z,2512.00
2023-05-08T06:32:47.753Z,2698.00
2023-05-08T06:33:47.700Z,2828.00
2023-05-08T06:34:47.737Z,2908.00
2023-05-08T06:35:47.693Z,2915.00
2023-05-08T06:36:47.691Z,2905.00
2023-05-08T06:37:47.699Z,2911.00
2023-05-08T06:38:47.686Z,3067.00
2023-05-08T06:39:50.453Z,3346.00
2023-05-08T06:40:47.650Z,3162.00
2023-05-08T06:41:47.670Z,3024.00
2023-05-08T06:42:47.643Z,3075.00
2023-05-08T06:43:47.628Z,3099.00
2023-05-08T06:44:47.647Z,3173.00
2023-05-08T06:45:47.620Z,3201.00
2023-05-08T06:46:47.822Z,3175.00
2023-05-08T06:47:47.735Z,3169.00
2023-05-08T06:48:47.601Z,3134.00
2023-05-08T06:49:47.638Z,3087.00
2023-05-08T06:50:47.604Z,3120.00
2023-05-08T06:51:47.595Z,3140.00
2023-05-08T06:52:47.608Z,3152.00
2023-05-08T06:53:47.589Z,3153.00
2023-05-08T06:54:47.977Z,3051.00
2023-05-08T06:55:47.573Z,3188.00
2023-05-08T06:56:47.568Z,3295.00
2023-05-08T06:57:47.565Z,3239.00
2023-05-08T06:58:57.108Z,3221.00
2023-05-08T06:59:49.002Z,3140.00
2023-05-08T07:00:47.520Z,3087.00
2023-05-08T07:01:47.592Z,3135.00
2023-05-08T07:02:47.663Z,3232.00
2023-05-08T07:03:47.504Z,3382.00
2023-05-08T07:04:47.568Z,3323.00
2023-05-08T07:05:47.493Z,3131.00
2023-05-08T07:06:47.643Z,3222.00
2023-05-08T07:07:47.967Z,3340.00
2023-05-08T07:08:47.485Z,3230.00
2023-05-08T07:09:47.500Z,3165.00
2023-05-08T07:10:47.472Z,3163.00
2023-05-08T07:11:47.473Z,3000.00
2023-05-08T07:12:47.487Z,2971.00
2023-05-08T07:13:47.474Z,2956.00
2023-05-08T07:14:47.477Z,2871.00
2023-05-08T07:15:47.498Z,2899.00
2023-05-08T07:16:47.506Z,2890.00
2023-05-08T07:17:47.535Z,2757.00
2023-05-08T07:18:47.503Z,2768.00
2023-05-08T07:19:47.515Z,2758.00
2023-05-08T07:20:47.540Z,2764.00
2023-05-08T07:21:47.568Z,2795.00
2023-05-08T07:22:47.554Z,2878.00
2023-05-08T07:23:47.524Z,2791.00
2023-05-08T07:24:47.536Z,2767.00
2023-05-08T07:25:47.540Z,2769.00
2023-05-08T07:26:47.554Z,2791.00
2023-05-08T07:27:47.575Z,2889.00
2023-05-08T07:28:47.561Z,2927.00
2023-05-08T07:29:47.565Z,2940.00
2023-05-08T07:30:47.582Z,2915.00
2023-05-08T07:31:47.593Z,2932.00
2023-05-08T07:32:47.605Z,2999.00
2023-05-08T07:33:47.594Z,3069.00
2023-05-08T07:34:47.604Z,3109.00
2023-05-08T07:35:47.626Z,3131.00
2023-05-08T07:36:47.686Z,3143.00
2023-05-08T07:37:47.706Z,3147.00
2023-05-08T07:38:47.819Z,3150.00
2023-05-08T07:39:47.826Z,3164.00
2023-05-08T07:40:47.987Z,3169.00
2023-05-08T07:41:49.719Z,3176.00
2023-05-08T07:42:48.497Z,3146.00
2023-05-08T07:43:48.073Z,3186.00
2023-05-08T07:44:54.519Z,3174.00
2023-05-08T07:45:49.103Z,3176.00
2023-05-08T07:46:48.128Z,3178.00
2023-05-08T07:47:48.543Z,3175.00
2023-05-08T07:48:48.077Z,3150.00
2023-05-08T07:49:48.100Z,3166.00
2023-05-08T07:50:48.053Z,3149.00
2023-05-08T07:51:48.048Z,3155.00
2023-05-08T07:52:50.172Z,3089.00
2023-05-08T07:53:48.119Z,3117.00
2023-05-08T07:54:48.226Z,3113.00
2023-05-08T07:55:48.360Z,3131.00
2023-05-08T07:56:48.311Z,3047.00
2023-05-08T07:57:48.378Z,3114.00
2023-05-08T07:58:48.408Z,3135.00
2023-05-08T07:59:48.474Z,3122.00
2023-05-08T08:00:48.552Z,3095.00
2023-05-08T08:01:48.629Z,3056.00
2023-05-08T08:02:48.751Z,3095.00
2023-05-08T08:03:48.864Z,3079.00
2023-05-08T08:04:48.769Z,3072.00
2023-05-08T08:05:48.986Z,3083.00
2023-05-08T08:06:48.852Z,3092.00
2023-05-08T08:07:48.998Z,3094.00
2023-05-08T08:08:48.972Z,3099.00
2023-05-08T08:09:49.020Z,3036.00
2023-05-08T08:10:49.147Z,3041.00
2023-05-08T08:11:49.128Z,3005.00
2023-05-08T08:12:49.530Z,2999.00
2023-05-08T08:13:49.245Z,2992.00
2023-05-08T08:14:49.292Z,2980.00
2023-05-08T08:15:49.344Z,2983.00
2023-05-08T08:16:49.495Z,2998.00
2023-05-08T08:17:49.573Z,2996.00
2023-05-08T08:18:49.507Z,2864.00
2023-05-08T08:19:49.558Z,2821.00
2023-05-08T08:20:49.662Z,2868.00
2023-05-08T08:21:49.690Z,2902.00
2023-05-08T08:22:49.731Z,2991.00
2023-05-08T08:23:49.776Z,3037.00
2023-05-08T08:24:50.023Z,3029.00
2023-05-08T08:25:49.994Z,2856.00
2023-05-08T08:26:50.026Z,2963.00
2023-05-08T08:27:49.987Z,3148.00
2023-05-08T08:28:50.055Z,3199.00
2023-05-08T08:29:51.198Z,3227.00
2023-05-08T08:30:50.105Z,3265.00
2023-05-08T08:31:50.067Z,3277.00
2023-05-08T08:32:50.098Z,3297.00
2023-05-08T08:33:50.064Z,3206.00
2023-05-08T08:34:50.066Z,3115.00
2023-05-08T08:35:50.062Z,3225.00
2023-05-08T08:36:50.048Z,3001.00
2023-05-08T08:37:50.507Z,3051.00
2023-05-08T08:38:50.031Z,3109.00
2023-05-08T08:39:50.032Z,3144.00
2023-05-08T08:40:50.020Z,3196.00
2023-05-08T08:41:50.007Z,3224.00
2023-05-08T08:42:50.201Z,3240.00
2023-05-08T08:43:50.025Z,3255.00
2023-05-08T08:44:50.024Z,3265.00
2023-05-08T08:45:49.996Z,3246.00
2023-05-08T08:46:50.033Z,3238.00
2023-05-08T08:47:49.968Z,3157.00
2023-05-08T08:48:49.952Z,3100.00
2023-05-08T08:49:49.955Z,3057.00
2023-05-08T08:50:49.942Z,3046.00
2023-05-08T08:51:49.924Z,2956.00
2023-05-08T08:52:49.937Z,2939.00
2023-05-08T08:53:49.907Z,2937.00
2023-05-08T08:54:49.923Z,2931.00
2023-05-08T08:55:49.931Z,2918.00
2023-05-08T08:56:49.917Z,2846.00
2023-05-08T08:57:49.899Z,2780.00
2023-05-08T08:58:49.966Z,2792.00
2023-05-08T08:59:49.909Z,2734.00
2023-05-08T09:00:49.865Z,2696.00
2023-05-08T09:01:49.891Z,2627.00
2023-05-08T09:02:50.036Z,2597.00
2023-05-08T09:03:50.197Z,2592.00
2023-05-08T09:04:49.858Z,2602.00
2023-05-08T09:05:50.034Z,2586.00
2023-05-08T09:06:49.847Z,2554.00
2023-05-08T09:07:50.006Z,2502.00
2023-05-08T09:08:49.817Z,2482.00
2023-05-08T09:09:49.823Z,2487.00
2023-05-08T09:10:49.812Z,2475.00
2023-05-08T09:11:49.814Z,2486.00
2023-05-08T09:12:50.143Z,2478.00
2023-05-08T09:13:49.952Z,2447.00
2023-05-08T09:14:50.157Z,2411.00
2023-05-08T09:15:50.183Z,2398.00
2023-05-08T09:16:50.205Z,2389.00
2023-05-08T09:17:50.297Z,2396.00
2023-05-08T09:18:50.238Z,2412.00
2023-05-08T09:19:50.303Z,2371.00
2023-05-08T09:20:50.370Z,2375.00
2023-05-08T09:21:50.456Z,2351.00
2023-05-08T09:22:50.536Z,2352.00
2023-05-08T09:23:50.561Z,2373.00
2023-05-08T09:24:50.617Z,2362.00
2023-05-08T09:25:50.691Z,2333.00
2023-05-08T09:26:50.752Z,2227.00
2023-05-08T09:27:51.036Z,2248.00
2023-05-08T09:28:51.052Z,2209.00
2023-05-08T09:29:50.896Z,2406.00
2023-05-08T09:30:51.013Z,2530.00
2023-05-08T09:31:51.031Z,2706.00
2023-05-08T09:32:51.098Z,2576.00
2023-05-08T09:33:51.551Z,2665.00
2023-05-08T09:34:51.148Z,2701.00
2023-05-08T09:35:51.186Z,2678.00
2023-05-08T09:36:51.267Z,2661.00
2023-05-08T09:37:51.309Z,2635.00
2023-05-08T09:38:51.527Z,2638.00
2023-05-08T09:39:51.417Z,2409.00
2023-05-08T09:40:52.035Z,2178.00
2023-05-08T09:41:51.492Z,2039.00
2023-05-08T09:42:51.526Z,1858.00
2023-05-08T09:43:51.524Z,1920.00
2023-05-08T09:44:51.565Z,1966.00
2023-05-08T09:45:51.578Z,2033.00
2023-05-08T09:46:51.632Z,2174.00
2023-05-08T09:47:51.517Z,2241.00
2023-05-08T09:48:51.503Z,2311.00
2023-05-08T09:49:51.506Z,2330.00
2023-05-08T09:50:51.544Z,2325.00
2023-05-08T09:51:51.544Z,2319.00
2023-05-08T09:52:51.558Z,2333.00
2023-05-08T09:53:51.557Z,2340.00
2023-05-08T09:54:51.510Z,2030.00
2023-05-08T09:55:51.560Z,1757.00
2023-05-08T09:56:51.523Z,1613.00
2023-05-08T09:57:51.550Z,1462.00
2023-05-08T09:58:51.577Z,1360.00
2023-05-08T09:59:51.623Z,1325.00
2023-05-08T10:00:51.714Z,1294.00
2023-05-08T10:01:51.726Z,1211.00
2023-05-08T10:02:51.952Z,1316.00
2023-05-08T10:03:52.090Z,1383.00
2023-05-08T10:04:51.930Z,1426.00
2023-05-08T10:05:52.093Z,1406.00
2023-05-08T10:06:52.949Z,1628.00
2023-05-08T10:07:52.030Z,1647.00
2023-05-08T10:08:52.061Z,1791.00
2023-05-08T10:09:52.053Z,1860.00
2023-05-08T10:10:52.109Z,1758.00
2023-05-08T10:11:52.194Z,1703.00
2023-05-08T10:12:52.198Z,1655.00
2023-05-08T10:13:52.204Z,1598.00
2023-05-08T10:14:52.232Z,1670.00
2023-05-08T10:15:52.288Z,1548.00
2023-05-08T10:16:52.373Z,1726.00
2023-05-08T10:17:52.422Z,1757.00
2023-05-08T10:18:52.480Z,1752.00
2023-05-08T10:19:52.422Z,1690.00
2023-05-08T10:20:52.479Z,1778.00
2023-05-08T10:21:52.475Z,1867.00
2023-05-08T10:22:52.501Z,1755.00
2023-05-08T10:23:52.535Z,1883.00
2023-05-08T10:24:52.520Z,1998.00
2023-05-08T10:25:54.710Z,2096.00
2023-05-08T10:27:05.624Z,2228.00
2023-05-08T10:27:53.558Z,2233.00
2023-05-08T10:28:53.051Z,2285.00
2023-05-08T10:29:52.589Z,2391.00
2023-05-08T10:30:52.593Z,2505.00
2023-05-08T10:31:52.544Z,2636.00
2023-05-08T10:32:52.573Z,2667.00
2023-05-08T10:33:52.537Z,2704.00
2023-05-08T10:34:52.591Z,2711.00
2023-05-08T10:35:52.488Z,2725.00
2023-05-08T10:36:54.040Z,2687.00
2023-05-08T10:37:52.494Z,2696.00
2023-05-08T10:38:52.552Z,2723.00
2023-05-08T10:39:52.593Z,2923.00
2023-05-08T10:40:52.642Z,3061.00
2023-05-08T10:41:52.698Z,2924.00
2023-05-08T10:42:52.728Z,2858.00
2023-05-08T10:43:52.760Z,2840.00
2023-05-08T10:44:52.790Z,2788.00
2023-05-08T10:45:52.890Z,2802.00
2023-05-08T10:46:52.847Z,2772.00
2023-05-08T10:47:52.976Z,2792.00
2023-05-08T10:48:52.904Z,2769.00
2023-05-08T10:49:52.936Z,2792.00
2023-05-08T10:50:52.971Z,2790.00
2023-05-08T10:51:53.002Z,2777.00
2023-05-08T10:52:53.050Z,2784.00
2023-05-08T10:53:53.039Z,2757.00
2023-05-08T10:54:53.079Z,3074.00
2023-05-08T10:55:53.105Z,2959.00
2023-05-08T10:56:53.110Z,2818.00
2023-05-08T10:57:53.125Z,2616.00
2023-05-08T10:58:53.190Z,2739.00
2023-05-08T10:59:53.268Z,2678.00
2023-05-08T11:00:53.196Z,2691.00
2023-05-08T11:02:53.261Z,2733.00
2023-05-08T11:03:53.376Z,2639.00
2023-05-08T11:04:53.271Z,2589.00
2023-05-08T11:05:53.318Z,2624.00
2023-05-08T11:06:53.361Z,2578.00
2023-05-08T11:07:53.348Z,2636.00
2023-05-08T11:08:53.331Z,2541.00
2023-05-08T11:09:53.398Z,2624.00
2023-05-08T11:10:53.383Z,2475.00
2023-05-08T11:11:53.400Z,2581.00
2023-05-08T11:12:53.446Z,2439.00
2023-05-08T11:13:53.424Z,2526.00
2023-05-08T11:14:53.469Z,2561.00
2023-05-08T11:15:53.535Z,2618.00
2023-05-08T11:16:53.511Z,2668.00
2023-05-08T11:17:53.550Z,2433.00
2023-05-08T11:18:53.613Z,2152.00
2023-05-08T11:19:53.575Z,1936.00
2023-05-08T11:20:53.582Z,1806.00
2023-05-08T11:21:54.059Z,1680.00
2023-05-08T11:22:53.672Z,1616.00
2023-05-08T11:23:53.705Z,1590.00
2023-05-08T11:24:53.745Z,1563.00
2023-05-08T11:25:53.836Z,1616.00
2023-05-08T11:26:53.855Z,1636.00
2023-05-08T11:27:53.878Z,1598.00
2023-05-08T11:28:53.934Z,1642.00
2023-05-08T11:29:53.976Z,1645.00
2023-05-08T11:30:54.038Z,1640.00
2023-05-08T11:31:54.151Z,1528.00
2023-05-08T11:32:54.124Z,1535.00
2023-05-08T11:33:54.210Z,1375.00
2023-05-08T11:34:54.256Z,1321.00
2023-05-08T11:35:54.321Z,812.00
2023-05-08T11:36:54.346Z,766.00
2023-05-08T11:37:54.384Z,714.00
2023-05-08T11:38:56.325Z,941.00
2023-05-08T11:39:54.499Z,1116.00
2023-05-08T11:40:54.541Z,1232.00
2023-05-08T11:41:54.594Z,1267.00
2023-05-08T11:42:54.636Z,1330.00
2023-05-08T11:43:54.667Z,1358.00
2023-05-08T11:44:54.713Z,1401.00
2023-05-08T11:45:54.780Z,1419.00
2023-05-08T11:46:54.941Z,1422.00
2023-05-08T11:47:55.102Z,1437.00
2023-05-08T11:48:54.985Z,1474.00
2023-05-08T11:49:55.012Z,1444.00
2023-05-08T11:50:55.115Z,1450.00
2023-05-08T11:51:55.181Z,1438.00
2023-05-08T11:52:55.197Z,1478.00
2023-05-08T11:53:55.251Z,1476.00
2023-05-08T11:54:55.325Z,1441.00
2023-05-08T11:55:55.418Z,1444.00
2023-05-08T11:56:55.445Z,1441.00
2023-05-08T11:57:55.513Z,1438.00
2023-05-08T11:58:55.563Z,1414.00
2023-05-08T11:59:55.609Z,1407.00
2023-05-08T12:00:55.746Z,1395.00
2023-05-08T12:02:07.614Z,1375.00
2023-05-08T12:02:56.844Z,1376.00
2023-05-08T12:03:55.959Z,1331.00
2023-05-08T12:04:55.772Z,1347.00
2023-05-08T12:05:55.722Z,1309.00
2023-05-08T12:06:55.707Z,1299.00